KFY1953 SBPA-SBRF
Flight info
| Callsign | KFY1953 |
|---|---|
| Flight time | 3h 21m |
| Altitude | 41000 |
| Route | ANLER UM540 KOXAG DCT ILKOK UZ23 ANBEX |
| Aircraft | A359/H-SDE2E3GHIJ3J4J5LM1ORWXY/LB1D1 |
Departure
| Time | 2026-05-04 11:27 |
|---|---|
| Airport | Porto Alegre-Salgado Filho International Airport (SBPA) |
Arrival
| Time | 2026-05-04 14:49 |
|---|---|
| Airport | Recife/Guararapes - Gilberto Freyre International Airport (SBRF) |
| Time | Latitude | Longitude | Altitude | Speed | Heading |
|---|---|---|---|---|---|
| 2026-05-04 11:19 | -29.99110 | -51.18101 | 27 ft | 0 kts | 296° |
| 2026-05-04 11:19 | -29.99112 | -51.18095 | 29 ft | 4 kts | 296° |
| 2026-05-04 11:19 | -29.99124 | -51.18068 | 31 ft | 2 kts | 296° |
| 2026-05-04 11:19 | -29.99132 | -51.18043 | 31 ft | 4 kts | 266° |
| 2026-05-04 11:20 | -29.99122 | -51.18019 | 31 ft | 4 kts | 212° |
| 2026-05-04 11:20 | -29.99102 | -51.18007 | 31 ft | 1 kts | 207° |
| 2026-05-04 11:20 | -29.99099 | -51.18004 | 31 ft | 0 kts | 207° |
| 2026-05-04 11:24 | -29.99101 | -51.18006 | 31 ft | 1 kts | 206° |
| 2026-05-04 11:25 | -29.99115 | -51.18014 | 31 ft | 5 kts | 206° |
| 2026-05-04 11:25 | -29.99169 | -51.18046 | 31 ft | 12 kts | 208° |
| 2026-05-04 11:25 | -29.99238 | -51.18127 | 29 ft | 17 kts | 239° |
| 2026-05-04 11:26 | -29.99437 | -51.18226 | 27 ft | 13 kts | 122° |
| 2026-05-04 11:27 | -29.99566 | -51.11326 | 2067 ft | 229 kts | 88° |
| 2026-05-04 11:28 | -29.99597 | -51.09374 | 2654 ft | 254 kts | 86° |
| 2026-05-04 11:28 | -29.99605 | -51.07282 | 3391 ft | 268 kts | 86° |
| 2026-05-04 11:28 | -29.99621 | -51.05089 | 4112 ft | 278 kts | 88° |
| 2026-05-04 11:28 | -29.99649 | -51.02834 | 4959 ft | 282 kts | 88° |
| 2026-05-04 11:29 | -29.99680 | -51.00555 | 5828 ft | 286 kts | 88° |
| 2026-05-04 11:29 | -29.99702 | -50.98244 | 6670 ft | 290 kts | 87° |
| 2026-05-04 11:29 | -29.99388 | -50.95979 | 7517 ft | 293 kts | 66° |
| 2026-05-04 11:29 | -29.98239 | -50.94069 | 8388 ft | 291 kts | 36° |
| 2026-05-04 11:31 | -29.86065 | -50.84709 | 10106 ft | 305 kts | 28° |
| 2026-05-04 11:33 | -29.73331 | -50.74924 | 11274 ft | 350 kts | 29° |
| 2026-05-04 11:33 | -29.71293 | -50.73351 | 12043 ft | 356 kts | 29° |
| 2026-05-04 11:33 | -29.69222 | -50.71750 | 12822 ft | 361 kts | 29° |
| 2026-05-04 11:34 | -29.67120 | -50.70127 | 13604 ft | 366 kts | 29° |
| 2026-05-04 11:34 | -29.64985 | -50.68480 | 14313 ft | 371 kts | 29° |
| 2026-05-04 11:34 | -29.62822 | -50.66813 | 14961 ft | 377 kts | 29° |
| 2026-05-04 11:34 | -29.60626 | -50.65120 | 15603 ft | 383 kts | 29° |
| 2026-05-04 11:35 | -29.58397 | -50.63404 | 16225 ft | 388 kts | 29° |
| 2026-05-04 11:35 | -29.56170 | -50.61690 | 16902 ft | 393 kts | 29° |
| 2026-05-04 11:35 | -29.53879 | -50.59927 | 17582 ft | 397 kts | 29° |
| 2026-05-04 11:35 | -29.51571 | -50.58153 | 18255 ft | 402 kts | 29° |
| 2026-05-04 11:36 | -29.49228 | -50.56351 | 18857 ft | 408 kts | 29° |
| 2026-05-04 11:36 | -29.46951 | -50.54364 | 19432 ft | 414 kts | 36° |
| 2026-05-04 11:36 | -29.44754 | -50.52209 | 20063 ft | 418 kts | 37° |
| 2026-05-04 11:36 | -29.42533 | -50.49996 | 20682 ft | 423 kts | 37° |
| 2026-05-04 11:37 | -29.40300 | -50.47774 | 21301 ft | 427 kts | 37° |
| 2026-05-04 11:37 | -29.38041 | -50.45531 | 21928 ft | 431 kts | 37° |
| 2026-05-04 11:37 | -29.35761 | -50.43270 | 22547 ft | 436 kts | 37° |
| 2026-05-04 11:37 | -29.33455 | -50.40986 | 23179 ft | 441 kts | 37° |
| 2026-05-04 11:38 | -29.31116 | -50.38673 | 23795 ft | 445 kts | 37° |
| 2026-05-04 11:38 | -29.28763 | -50.36346 | 24303 ft | 450 kts | 37° |
| 2026-05-04 11:38 | -29.26350 | -50.34041 | 24835 ft | 453 kts | 33° |
| 2026-05-04 11:38 | -29.23838 | -50.31913 | 25304 ft | 457 kts | 31° |
| 2026-05-04 11:39 | -29.21221 | -50.29737 | 25819 ft | 461 kts | 31° |
| 2026-05-04 11:39 | -29.18650 | -50.27583 | 26319 ft | 465 kts | 32° |
| 2026-05-04 11:40 | -29.02628 | -50.13985 | 29215 ft | 490 kts | 32° |
| 2026-05-04 11:41 | -28.99879 | -50.11650 | 29679 ft | 494 kts | 32° |
| 2026-05-04 11:41 | -28.97104 | -50.09294 | 30107 ft | 498 kts | 32° |
| 2026-05-04 11:41 | -28.94306 | -50.06919 | 30500 ft | 502 kts | 32° |
| 2026-05-04 11:41 | -28.91500 | -50.04538 | 30865 ft | 505 kts | 32° |
| 2026-05-04 11:42 | -28.88706 | -50.02169 | 31254 ft | 508 kts | 32° |
| 2026-05-04 11:42 | -28.85861 | -49.99760 | 31623 ft | 510 kts | 32° |
| 2026-05-04 11:42 | -28.83005 | -49.97342 | 31983 ft | 513 kts | 32° |
| 2026-05-04 11:42 | -28.80122 | -49.94910 | 32341 ft | 515 kts | 30° |
| 2026-05-04 11:43 | -28.77209 | -49.92519 | 32601 ft | 518 kts | 29° |
| 2026-05-04 11:43 | -28.74276 | -49.90105 | 32913 ft | 520 kts | 30° |
| 2026-05-04 11:43 | -28.71348 | -49.87673 | 33200 ft | 523 kts | 30° |
| 2026-05-04 11:43 | -28.68402 | -49.85213 | 33464 ft | 526 kts | 30° |
| 2026-05-04 11:44 | -28.65432 | -49.82777 | 33741 ft | 528 kts | 29° |
| 2026-05-04 11:44 | -28.62453 | -49.80361 | 34008 ft | 529 kts | 29° |
| 2026-05-04 11:44 | -28.59451 | -49.77911 | 34246 ft | 532 kts | 29° |
| 2026-05-04 11:44 | -28.56448 | -49.75435 | 34432 ft | 534 kts | 30° |
| 2026-05-04 11:45 | -28.53438 | -49.72930 | 34629 ft | 537 kts | 30° |
| 2026-05-04 11:45 | -28.50420 | -49.70402 | 34867 ft | 538 kts | 30° |
| 2026-05-04 11:45 | -28.47400 | -49.67861 | 35163 ft | 538 kts | 30° |
| 2026-05-04 11:45 | -28.44398 | -49.65333 | 35444 ft | 537 kts | 30° |
| 2026-05-04 11:46 | -28.41421 | -49.62828 | 35694 ft | 538 kts | 30° |
| 2026-05-04 11:46 | -28.38412 | -49.60297 | 35960 ft | 538 kts | 30° |
| 2026-05-04 11:46 | -28.35402 | -49.57768 | 36222 ft | 538 kts | 30° |
| 2026-05-04 11:46 | -28.32382 | -49.55235 | 36433 ft | 538 kts | 30° |
| 2026-05-04 11:47 | -28.29371 | -49.52711 | 36695 ft | 538 kts | 29° |
| 2026-05-04 11:47 | -28.26345 | -49.50177 | 36938 ft | 540 kts | 30° |
| 2026-05-04 11:47 | -28.23320 | -49.47645 | 37134 ft | 540 kts | 29° |
| 2026-05-04 11:47 | -28.20335 | -49.45150 | 37307 ft | 540 kts | 29° |
| 2026-05-04 11:48 | -28.17305 | -49.42621 | 37515 ft | 539 kts | 29° |
| 2026-05-04 11:48 | -28.14285 | -49.40101 | 37673 ft | 540 kts | 29° |
| 2026-05-04 11:48 | -28.11260 | -49.37577 | 37905 ft | 539 kts | 29° |
| 2026-05-04 11:48 | -28.08237 | -49.35056 | 38144 ft | 539 kts | 29° |
| 2026-05-04 11:49 | -28.05216 | -49.32528 | 38301 ft | 540 kts | 29° |
| 2026-05-04 11:49 | -28.02206 | -49.29966 | 38503 ft | 540 kts | 30° |
| 2026-05-04 11:49 | -27.99199 | -49.27390 | 38732 ft | 540 kts | 30° |
| 2026-05-04 11:49 | -27.96244 | -49.24856 | 38931 ft | 540 kts | 30° |
| 2026-05-04 11:50 | -27.93245 | -49.22290 | 39061 ft | 540 kts | 30° |
| 2026-05-04 11:50 | -27.87237 | -49.17173 | 39286 ft | 541 kts | 29° |
| 2026-05-04 11:50 | -27.84202 | -49.14655 | 39483 ft | 540 kts | 27° |
| 2026-05-04 11:51 | -27.81139 | -49.12190 | 39649 ft | 539 kts | 27° |
| 2026-05-04 11:51 | -27.78075 | -49.09756 | 39803 ft | 539 kts | 27° |
| 2026-05-04 11:51 | -27.75004 | -49.07322 | 39935 ft | 539 kts | 27° |
| 2026-05-04 11:51 | -27.71929 | -49.04879 | 40103 ft | 539 kts | 27° |
| 2026-05-04 11:52 | -27.68868 | -49.02437 | 40226 ft | 539 kts | 27° |
| 2026-05-04 11:52 | -27.65823 | -48.99966 | 40345 ft | 540 kts | 28° |
| 2026-05-04 11:52 | -27.62782 | -48.97466 | 40482 ft | 540 kts | 28° |
| 2026-05-04 11:52 | -27.59792 | -48.94997 | 40593 ft | 540 kts | 28° |
| 2026-05-04 11:53 | -27.56759 | -48.92489 | 40691 ft | 540 kts | 28° |
| 2026-05-04 11:53 | -27.50683 | -48.87466 | 40881 ft | 540 kts | 28° |
| 2026-05-04 11:53 | -27.47648 | -48.84963 | 41000 ft | 540 kts | 28° |
| 2026-05-04 11:55 | -27.26262 | -48.67457 | 41200 ft | 549 kts | 28° |
| 2026-05-04 11:56 | -27.20095 | -48.62349 | 41208 ft | 551 kts | 29° |
| 2026-05-04 11:56 | -27.13949 | -48.57203 | 41202 ft | 549 kts | 28° |
| 2026-05-04 11:57 | -27.07758 | -48.52186 | 41197 ft | 549 kts | 27° |
| 2026-05-04 11:57 | -27.01528 | -48.47179 | 41196 ft | 549 kts | 27° |
| 2026-05-04 11:58 | -26.95314 | -48.42181 | 41174 ft | 549 kts | 27° |
| 2026-05-04 11:58 | -26.89132 | -48.37206 | 41199 ft | 550 kts | 27° |
| 2026-05-04 11:59 | -26.82909 | -48.32202 | 41201 ft | 551 kts | 27° |
| 2026-05-04 11:59 | -26.76670 | -48.27191 | 41208 ft | 551 kts | 27° |
| 2026-05-04 12:00 | -26.70439 | -48.22196 | 41212 ft | 551 kts | 27° |
| 2026-05-04 12:00 | -26.64248 | -48.17223 | 41211 ft | 551 kts | 27° |
| 2026-05-04 12:01 | -26.58027 | -48.12209 | 41207 ft | 551 kts | 27° |
| 2026-05-04 12:02 | -26.36259 | -47.94748 | 41206 ft | 550 kts | 27° |
| 2026-05-04 12:03 | -26.30039 | -47.89777 | 41204 ft | 550 kts | 27° |
| 2026-05-04 12:03 | -26.23808 | -47.84803 | 41204 ft | 551 kts | 27° |
| 2026-05-04 12:04 | -26.17611 | -47.79861 | 41204 ft | 551 kts | 27° |
| 2026-05-04 12:04 | -26.11364 | -47.74886 | 41209 ft | 551 kts | 27° |
| 2026-05-04 12:05 | -26.05133 | -47.69929 | 41209 ft | 550 kts | 27° |
| 2026-05-04 12:05 | -25.98897 | -47.64978 | 41187 ft | 551 kts | 31° |
| 2026-05-04 12:06 | -25.92753 | -47.59836 | 41213 ft | 552 kts | 32° |
| 2026-05-04 12:06 | -25.86639 | -47.54756 | 41209 ft | 550 kts | 31° |
| 2026-05-04 12:07 | -25.80430 | -47.49773 | 41206 ft | 550 kts | 30° |
| 2026-05-04 12:07 | -25.74189 | -47.44848 | 41208 ft | 549 kts | 30° |
| 2026-05-04 12:08 | -25.67985 | -47.39966 | 41187 ft | 549 kts | 30° |
| 2026-05-04 12:08 | -25.61747 | -47.35059 | 41210 ft | 549 kts | 30° |
| 2026-05-04 12:09 | -25.55518 | -47.30159 | 41211 ft | 549 kts | 30° |
| 2026-05-04 12:09 | -25.49317 | -47.25288 | 41210 ft | 549 kts | 30° |
| 2026-05-04 12:10 | -25.43080 | -47.20394 | 41208 ft | 549 kts | 30° |
| 2026-05-04 12:10 | -25.36842 | -47.15505 | 41204 ft | 549 kts | 30° |
| 2026-05-04 12:11 | -25.30616 | -47.10633 | 41212 ft | 548 kts | 30° |
| 2026-05-04 12:11 | -25.24393 | -47.05769 | 41211 ft | 548 kts | 30° |
| 2026-05-04 12:12 | -25.18154 | -47.00900 | 41208 ft | 548 kts | 30° |
| 2026-05-04 12:12 | -25.11582 | -46.97037 | 41214 ft | 532 kts | 13° |
| 2026-05-04 12:14 | -24.84734 | -46.87528 | 41208 ft | 529 kts | 10° |
| 2026-05-04 12:15 | -24.77707 | -46.85072 | 41206 ft | 529 kts | 10° |
| 2026-05-04 12:15 | -24.70679 | -46.82615 | 41206 ft | 529 kts | 10° |
| 2026-05-04 12:16 | -24.63654 | -46.80163 | 41214 ft | 529 kts | 10° |
| 2026-05-04 12:16 | -24.56666 | -46.77727 | 41212 ft | 529 kts | 10° |
| 2026-05-04 12:17 | -24.49634 | -46.75279 | 41210 ft | 529 kts | 10° |
| 2026-05-04 12:17 | -24.42595 | -46.72832 | 41210 ft | 529 kts | 10° |
| 2026-05-04 12:18 | -24.35555 | -46.70387 | 41213 ft | 530 kts | 10° |
| 2026-05-04 12:18 | -24.28527 | -46.67949 | 41217 ft | 530 kts | 10° |
| 2026-05-04 12:19 | -24.21541 | -46.65529 | 41215 ft | 529 kts | 10° |
| 2026-05-04 12:19 | -24.14525 | -46.63100 | 41216 ft | 529 kts | 10° |
| 2026-05-04 12:20 | -24.07504 | -46.60673 | 41216 ft | 528 kts | 9° |
| 2026-05-04 12:20 | -24.00488 | -46.58247 | 41196 ft | 528 kts | 10° |
| 2026-05-04 12:21 | -23.93473 | -46.55828 | 41206 ft | 527 kts | 10° |
| 2026-05-04 12:21 | -23.86486 | -46.53423 | 41257 ft | 526 kts | 9° |
| 2026-05-04 12:22 | -23.79545 | -46.51036 | 41268 ft | 526 kts | 9° |
| 2026-05-04 12:22 | -23.72561 | -46.48636 | 41274 ft | 526 kts | 9° |
| 2026-05-04 12:23 | -23.65578 | -46.46239 | 41280 ft | 526 kts | 9° |
| 2026-05-04 12:23 | -23.58585 | -46.43841 | 41256 ft | 526 kts | 9° |
| 2026-05-04 12:24 | -23.51565 | -46.41623 | 41270 ft | 523 kts | 7° |
| 2026-05-04 12:24 | -23.44529 | -46.39632 | 41262 ft | 522 kts | 6° |
| 2026-05-04 12:25 | -23.37507 | -46.37669 | 41266 ft | 519 kts | 5° |
| 2026-05-04 12:25 | -23.30513 | -46.36014 | 41255 ft | 517 kts | 4° |
| 2026-05-04 12:26 | -23.23481 | -46.34420 | 41251 ft | 516 kts | 4° |
| 2026-05-04 12:26 | -23.16453 | -46.32785 | 41234 ft | 516 kts | 4° |
| 2026-05-04 12:27 | -23.09422 | -46.31119 | 41238 ft | 516 kts | 4° |
| 2026-05-04 12:27 | -23.02403 | -46.29447 | 41236 ft | 516 kts | 4° |
| 2026-05-04 12:28 | -22.95371 | -46.27777 | 41224 ft | 517 kts | 4° |
| 2026-05-04 12:28 | -22.88345 | -46.26111 | 41234 ft | 517 kts | 4° |
| 2026-05-04 12:29 | -22.81321 | -46.24446 | 41237 ft | 516 kts | 4° |
| 2026-05-04 12:29 | -22.74435 | -46.21909 | 41239 ft | 534 kts | 21° |
| 2026-05-04 12:30 | -22.68171 | -46.17523 | 41231 ft | 543 kts | 29° |
| 2026-05-04 12:30 | -22.62188 | -46.12445 | 41247 ft | 547 kts | 35° |
| 2026-05-04 12:31 | -22.56396 | -46.07095 | 41251 ft | 547 kts | 35° |
| 2026-05-04 12:31 | -22.50564 | -46.01804 | 41255 ft | 547 kts | 34° |
| 2026-05-04 12:32 | -22.41734 | -45.93991 | 41257 ft | 546 kts | 33° |
| 2026-05-04 12:33 | -22.35838 | -45.88809 | 41266 ft | 546 kts | 33° |
| 2026-05-04 12:33 | -22.29948 | -45.83637 | 41265 ft | 545 kts | 33° |
| 2026-05-04 12:34 | -22.24052 | -45.78485 | 41264 ft | 545 kts | 33° |
| 2026-05-04 12:34 | -22.18167 | -45.73409 | 41260 ft | 544 kts | 33° |
| 2026-05-04 12:35 | -22.12251 | -45.68316 | 41260 ft | 544 kts | 33° |
| 2026-05-04 12:35 | -22.06331 | -45.63216 | 41260 ft | 545 kts | 33° |
| 2026-05-04 12:36 | -22.00402 | -45.58109 | 41259 ft | 545 kts | 33° |
| 2026-05-04 12:36 | -21.94484 | -45.53016 | 41265 ft | 544 kts | 33° |
| 2026-05-04 12:37 | -21.88558 | -45.47921 | 41263 ft | 544 kts | 33° |
| 2026-05-04 12:37 | -21.82665 | -45.42861 | 41261 ft | 544 kts | 33° |
| 2026-05-04 12:38 | -21.76740 | -45.37779 | 41261 ft | 544 kts | 32° |
| 2026-05-04 12:38 | -21.70813 | -45.32701 | 41246 ft | 544 kts | 33° |
| 2026-05-04 12:39 | -21.64886 | -45.27628 | 41262 ft | 544 kts | 33° |
| 2026-05-04 12:39 | -21.58952 | -45.22555 | 41260 ft | 544 kts | 33° |
| 2026-05-04 12:40 | -21.53065 | -45.17528 | 41257 ft | 544 kts | 32° |
| 2026-05-04 12:40 | -21.47131 | -45.12465 | 41255 ft | 544 kts | 32° |
| 2026-05-04 12:41 | -21.41197 | -45.07407 | 41258 ft | 544 kts | 32° |
| 2026-05-04 12:41 | -21.35269 | -45.02362 | 41252 ft | 544 kts | 33° |
| 2026-05-04 12:42 | -21.29336 | -44.97317 | 41252 ft | 543 kts | 33° |
| 2026-05-04 12:42 | -21.23401 | -44.92275 | 41254 ft | 543 kts | 32° |
| 2026-05-04 12:43 | -21.17483 | -44.87253 | 41227 ft | 543 kts | 32° |
| 2026-05-04 12:43 | -21.11590 | -44.82258 | 41249 ft | 543 kts | 33° |
| 2026-05-04 12:44 | -21.05670 | -44.77245 | 41259 ft | 542 kts | 33° |
| 2026-05-04 12:44 | -20.99649 | -44.72398 | 41255 ft | 539 kts | 29° |
| 2026-05-04 12:45 | -20.93489 | -44.67790 | 41250 ft | 539 kts | 28° |
| 2026-05-04 12:45 | -20.87348 | -44.63188 | 41262 ft | 539 kts | 29° |
| 2026-05-04 12:46 | -20.81256 | -44.58567 | 41256 ft | 539 kts | 29° |
| 2026-05-04 12:46 | -20.75127 | -44.53979 | 41254 ft | 537 kts | 27° |
| 2026-05-04 12:47 | -20.68985 | -44.49413 | 41257 ft | 537 kts | 27° |
| 2026-05-04 12:47 | -20.62838 | -44.44869 | 41263 ft | 536 kts | 25° |
| 2026-05-04 12:48 | -20.56649 | -44.40449 | 41253 ft | 536 kts | 22° |
| 2026-05-04 12:48 | -20.50500 | -44.35949 | 41268 ft | 540 kts | 31° |
| 2026-05-04 12:49 | -20.44558 | -44.31024 | 41260 ft | 538 kts | 32° |
| 2026-05-04 12:49 | -20.38647 | -44.26141 | 41252 ft | 537 kts | 32° |
| 2026-05-04 12:50 | -20.32755 | -44.21336 | 41258 ft | 536 kts | 31° |
| 2026-05-04 12:50 | -20.26785 | -44.16569 | 41258 ft | 536 kts | 31° |
| 2026-05-04 12:51 | -20.20800 | -44.11833 | 41269 ft | 535 kts | 31° |
| 2026-05-04 12:51 | -20.14818 | -44.07108 | 41262 ft | 535 kts | 31° |
| 2026-05-04 12:52 | -20.08831 | -44.02382 | 41279 ft | 535 kts | 31° |
| 2026-05-04 12:52 | -20.02846 | -43.97670 | 41270 ft | 535 kts | 31° |
| 2026-05-04 12:53 | -19.96903 | -43.92993 | 41290 ft | 535 kts | 31° |
| 2026-05-04 12:53 | -19.90912 | -43.88283 | 41294 ft | 535 kts | 31° |
| 2026-05-04 12:54 | -19.84933 | -43.83588 | 41290 ft | 534 kts | 31° |
| 2026-05-04 12:54 | -19.78848 | -43.79076 | 41283 ft | 532 kts | 28° |
| 2026-05-04 12:55 | -19.72693 | -43.74696 | 41282 ft | 532 kts | 28° |
| 2026-05-04 12:55 | -19.66548 | -43.70303 | 41281 ft | 532 kts | 28° |
| 2026-05-04 12:56 | -19.60423 | -43.65886 | 41275 ft | 532 kts | 28° |
| 2026-05-04 12:56 | -19.54307 | -43.61468 | 41269 ft | 532 kts | 28° |
| 2026-05-04 12:57 | -19.48226 | -43.57076 | 41267 ft | 531 kts | 28° |
| 2026-05-04 12:57 | -19.42112 | -43.52668 | 41246 ft | 532 kts | 28° |
| 2026-05-04 12:58 | -19.35988 | -43.48258 | 41263 ft | 531 kts | 28° |
| 2026-05-04 12:58 | -19.29882 | -43.43861 | 41262 ft | 531 kts | 29° |
| 2026-05-04 12:59 | -19.24903 | -43.40013 | 41266 ft | 533 kts | 32° |
| 2026-05-04 12:59 | -19.19030 | -43.35243 | 41259 ft | 532 kts | 32° |
| 2026-05-04 13:00 | -19.13146 | -43.30494 | 41267 ft | 530 kts | 32° |
| 2026-05-04 13:00 | -19.07247 | -43.25797 | 41251 ft | 530 kts | 32° |
| 2026-05-04 13:01 | -19.01372 | -43.21146 | 41253 ft | 530 kts | 32° |
| 2026-05-04 13:01 | -18.95459 | -43.16470 | 41244 ft | 530 kts | 32° |
| 2026-05-04 13:02 | -18.89551 | -43.11799 | 41245 ft | 530 kts | 31° |
| 2026-05-04 13:02 | -18.83636 | -43.07126 | 41244 ft | 530 kts | 31° |
| 2026-05-04 13:03 | -18.77722 | -43.02458 | 41249 ft | 530 kts | 32° |
| 2026-05-04 13:03 | -18.71832 | -42.97805 | 41232 ft | 529 kts | 32° |
| 2026-05-04 13:04 | -18.65978 | -42.93183 | 41235 ft | 528 kts | 32° |
| 2026-05-04 13:04 | -18.60089 | -42.88539 | 41241 ft | 528 kts | 32° |
| 2026-05-04 13:05 | -18.54211 | -42.83907 | 41246 ft | 527 kts | 32° |
| 2026-05-04 13:05 | -18.48333 | -42.79288 | 41245 ft | 526 kts | 32° |
| 2026-05-04 13:06 | -18.42465 | -42.74678 | 41249 ft | 526 kts | 32° |
| 2026-05-04 13:06 | -18.36641 | -42.70106 | 41244 ft | 525 kts | 32° |
| 2026-05-04 13:07 | -18.30784 | -42.65513 | 41249 ft | 524 kts | 32° |
| 2026-05-04 13:07 | -18.24931 | -42.60928 | 41246 ft | 524 kts | 32° |
| 2026-05-04 13:08 | -18.19077 | -42.56345 | 41236 ft | 523 kts | 32° |
| 2026-05-04 13:08 | -18.13239 | -42.51779 | 41240 ft | 522 kts | 32° |
| 2026-05-04 13:09 | -18.07441 | -42.47248 | 41243 ft | 522 kts | 32° |
| 2026-05-04 13:09 | -18.01604 | -42.42693 | 41241 ft | 522 kts | 32° |
| 2026-05-04 13:10 | -17.95765 | -42.38137 | 41244 ft | 522 kts | 32° |
| 2026-05-04 13:10 | -17.89936 | -42.33593 | 41250 ft | 521 kts | 32° |
| 2026-05-04 13:11 | -17.84109 | -42.29055 | 41242 ft | 521 kts | 32° |
| 2026-05-04 13:11 | -17.78290 | -42.24527 | 41239 ft | 521 kts | 32° |
| 2026-05-04 13:12 | -17.72505 | -42.20029 | 41249 ft | 520 kts | 32° |
| 2026-05-04 13:12 | -17.66687 | -42.15509 | 41254 ft | 519 kts | 32° |
| 2026-05-04 13:13 | -17.60876 | -42.10999 | 41252 ft | 519 kts | 32° |
| 2026-05-04 13:13 | -17.55059 | -42.06488 | 41244 ft | 519 kts | 32° |
| 2026-05-04 13:14 | -17.49264 | -42.01995 | 41250 ft | 517 kts | 32° |
| 2026-05-04 13:14 | -17.43507 | -41.97538 | 41250 ft | 517 kts | 32° |
| 2026-05-04 13:15 | -17.37718 | -41.93053 | 41250 ft | 516 kts | 32° |
| 2026-05-04 13:15 | -17.31939 | -41.88577 | 41250 ft | 516 kts | 32° |
| 2026-05-04 13:16 | -17.26163 | -41.84108 | 41247 ft | 516 kts | 32° |
| 2026-05-04 13:16 | -17.20401 | -41.79654 | 41244 ft | 515 kts | 32° |
| 2026-05-04 13:17 | -17.14627 | -41.75195 | 41248 ft | 515 kts | 32° |
| 2026-05-04 13:17 | -17.08831 | -41.70786 | 41241 ft | 514 kts | 30° |
| 2026-05-04 13:18 | -17.03045 | -41.66448 | 41236 ft | 514 kts | 30° |
| 2026-05-04 13:18 | -16.97250 | -41.62035 | 41239 ft | 515 kts | 31° |
| 2026-05-04 13:19 | -16.91474 | -41.57594 | 41236 ft | 515 kts | 31° |
| 2026-05-04 13:19 | -16.85745 | -41.53181 | 41228 ft | 515 kts | 31° |
| 2026-05-04 13:20 | -16.79978 | -41.48745 | 41230 ft | 515 kts | 31° |
| 2026-05-04 13:20 | -16.74210 | -41.44313 | 41229 ft | 515 kts | 31° |
| 2026-05-04 13:21 | -16.68438 | -41.39885 | 41223 ft | 514 kts | 31° |
| 2026-05-04 13:21 | -16.62685 | -41.35436 | 41231 ft | 514 kts | 31° |
| 2026-05-04 13:22 | -16.56944 | -41.30967 | 41220 ft | 514 kts | 31° |
| 2026-05-04 13:22 | -16.51221 | -41.26521 | 41215 ft | 513 kts | 31° |
| 2026-05-04 13:23 | -16.45482 | -41.22076 | 41212 ft | 513 kts | 31° |
| 2026-05-04 13:23 | -16.39748 | -41.17639 | 41212 ft | 513 kts | 31° |
| 2026-05-04 13:24 | -16.34062 | -41.13242 | 41211 ft | 513 kts | 31° |
| 2026-05-04 13:24 | -16.28327 | -41.08812 | 41208 ft | 513 kts | 31° |
| 2026-05-04 13:25 | -16.19721 | -41.02169 | 41200 ft | 512 kts | 32° |
| 2026-05-04 13:25 | -16.14030 | -40.97779 | 41200 ft | 512 kts | 32° |
| 2026-05-04 13:26 | -16.08292 | -40.93357 | 41200 ft | 512 kts | 32° |
| 2026-05-04 13:26 | -16.02571 | -40.88951 | 41186 ft | 512 kts | 31° |
| 2026-05-04 13:27 | -15.96843 | -40.84543 | 41193 ft | 511 kts | 32° |
| 2026-05-04 13:27 | -15.91126 | -40.80147 | 41193 ft | 512 kts | 32° |
| 2026-05-04 13:28 | -15.85427 | -40.75767 | 41190 ft | 512 kts | 32° |
| 2026-05-04 13:28 | -15.79698 | -40.71369 | 41182 ft | 511 kts | 32° |
| 2026-05-04 13:29 | -15.73970 | -40.66974 | 41186 ft | 511 kts | 32° |
| 2026-05-04 13:29 | -15.68256 | -40.62593 | 41187 ft | 511 kts | 32° |
| 2026-05-04 13:30 | -15.62530 | -40.58206 | 41186 ft | 511 kts | 32° |
| 2026-05-04 13:30 | -15.56803 | -40.53821 | 41174 ft | 511 kts | 32° |
| 2026-05-04 13:31 | -15.51079 | -40.49441 | 41176 ft | 510 kts | 32° |
| 2026-05-04 13:31 | -15.45396 | -40.45096 | 41174 ft | 510 kts | 32° |
| 2026-05-04 13:32 | -15.39687 | -40.40734 | 41170 ft | 510 kts | 32° |
| 2026-05-04 13:32 | -15.33970 | -40.36369 | 41170 ft | 510 kts | 32° |
| 2026-05-04 13:33 | -15.28255 | -40.32009 | 41173 ft | 509 kts | 32° |
| 2026-05-04 13:33 | -15.22568 | -40.27681 | 41172 ft | 509 kts | 32° |
| 2026-05-04 13:34 | -15.16857 | -40.23327 | 41172 ft | 509 kts | 32° |
| 2026-05-04 13:34 | -15.11155 | -40.18983 | 41164 ft | 509 kts | 32° |
| 2026-05-04 13:35 | -15.02589 | -40.12467 | 41165 ft | 508 kts | 32° |
| 2026-05-04 13:36 | -14.96926 | -40.08164 | 41164 ft | 508 kts | 32° |
| 2026-05-04 13:36 | -14.91225 | -40.03835 | 41166 ft | 508 kts | 32° |
| 2026-05-04 13:37 | -14.85533 | -39.99516 | 41158 ft | 508 kts | 32° |
| 2026-05-04 13:37 | -14.79822 | -39.95184 | 41159 ft | 507 kts | 32° |
| 2026-05-04 13:38 | -14.74143 | -39.90880 | 41154 ft | 507 kts | 32° |
| 2026-05-04 13:38 | -14.68479 | -39.86590 | 41153 ft | 507 kts | 32° |
| 2026-05-04 13:39 | -14.62778 | -39.82275 | 41148 ft | 507 kts | 32° |
| 2026-05-04 13:39 | -14.57076 | -39.77963 | 41146 ft | 507 kts | 32° |
| 2026-05-04 13:40 | -14.51379 | -39.73656 | 41141 ft | 507 kts | 32° |
| 2026-05-04 13:40 | -14.45678 | -39.69350 | 41140 ft | 507 kts | 32° |
| 2026-05-04 13:41 | -14.39974 | -39.65043 | 41140 ft | 507 kts | 32° |
| 2026-05-04 13:41 | -14.34277 | -39.60746 | 41135 ft | 507 kts | 32° |
| 2026-05-04 13:42 | -14.25760 | -39.54344 | 41134 ft | 506 kts | 32° |
| 2026-05-04 13:42 | -14.20056 | -39.50071 | 41136 ft | 506 kts | 32° |
| 2026-05-04 13:43 | -14.15314 | -39.46520 | 41122 ft | 506 kts | 32° |
| 2026-05-04 13:43 | -14.08681 | -39.41556 | 41131 ft | 506 kts | 32° |
| 2026-05-04 13:44 | -14.03897 | -39.37977 | 41125 ft | 506 kts | 32° |
| 2026-05-04 13:44 | -13.98238 | -39.33746 | 41124 ft | 506 kts | 32° |
| 2026-05-04 13:45 | -13.92546 | -39.29494 | 41124 ft | 506 kts | 32° |
| 2026-05-04 13:45 | -13.86841 | -39.25234 | 41123 ft | 505 kts | 32° |
| 2026-05-04 13:46 | -13.81147 | -39.20985 | 41121 ft | 505 kts | 32° |
| 2026-05-04 13:46 | -13.75448 | -39.16735 | 41121 ft | 505 kts | 32° |
| 2026-05-04 13:47 | -13.69760 | -39.12496 | 41120 ft | 505 kts | 32° |
| 2026-05-04 13:47 | -13.64059 | -39.08250 | 41113 ft | 505 kts | 32° |
| 2026-05-04 13:48 | -13.58399 | -39.04036 | 41115 ft | 505 kts | 32° |
| 2026-05-04 13:48 | -13.52708 | -38.99812 | 41111 ft | 504 kts | 32° |
| 2026-05-04 13:49 | -13.46994 | -38.95589 | 41111 ft | 504 kts | 32° |
| 2026-05-04 13:49 | -13.41293 | -38.91376 | 41108 ft | 504 kts | 32° |
| 2026-05-04 13:50 | -13.35624 | -38.87187 | 41111 ft | 504 kts | 32° |
| 2026-05-04 13:50 | -13.29927 | -38.82977 | 41111 ft | 504 kts | 32° |
| 2026-05-04 13:51 | -13.24232 | -38.78771 | 41112 ft | 504 kts | 32° |
| 2026-05-04 13:51 | -13.18527 | -38.74561 | 41110 ft | 504 kts | 32° |
| 2026-05-04 13:52 | -13.09975 | -38.68255 | 41108 ft | 504 kts | 32° |
| 2026-05-04 13:53 | -13.04314 | -38.64083 | 41104 ft | 504 kts | 32° |
| 2026-05-04 13:53 | -12.98611 | -38.59883 | 41106 ft | 504 kts | 32° |
| 2026-05-04 13:54 | -12.90063 | -38.53592 | 41100 ft | 504 kts | 32° |
| 2026-05-04 13:55 | -12.81501 | -38.47297 | 41100 ft | 504 kts | 32° |
| 2026-05-04 13:55 | -12.72937 | -38.41005 | 41101 ft | 504 kts | 32° |
| 2026-05-04 13:56 | -12.67230 | -38.36816 | 41100 ft | 504 kts | 32° |
| 2026-05-04 13:57 | -12.58698 | -38.30557 | 41094 ft | 505 kts | 33° |
| 2026-05-04 13:58 | -12.47255 | -38.22169 | 41096 ft | 505 kts | 33° |
| 2026-05-04 13:58 | -12.38661 | -38.15921 | 41108 ft | 504 kts | 30° |
| 2026-05-04 13:59 | -12.32896 | -38.11871 | 41109 ft | 505 kts | 30° |
| 2026-05-04 14:00 | -12.24218 | -38.05635 | 41103 ft | 506 kts | 31° |
| 2026-05-04 14:00 | -12.15659 | -37.99381 | 41110 ft | 506 kts | 31° |
| 2026-05-04 14:01 | -12.09928 | -37.95193 | 41104 ft | 506 kts | 31° |
| 2026-05-04 14:02 | -12.01323 | -37.88918 | 41095 ft | 505 kts | 31° |
| 2026-05-04 14:02 | -11.95596 | -37.84747 | 41095 ft | 505 kts | 31° |
| 2026-05-04 14:03 | -11.89863 | -37.80574 | 41089 ft | 505 kts | 31° |
| 2026-05-04 14:03 | -11.84141 | -37.76420 | 41097 ft | 505 kts | 31° |
| 2026-05-04 14:04 | -11.75568 | -37.70207 | 41090 ft | 505 kts | 31° |
| 2026-05-04 14:04 | -11.69838 | -37.66057 | 41089 ft | 505 kts | 31° |
| 2026-05-04 14:05 | -11.61224 | -37.59823 | 41084 ft | 505 kts | 31° |
| 2026-05-04 14:06 | -11.55487 | -37.55673 | 41090 ft | 505 kts | 31° |
| 2026-05-04 14:06 | -11.49748 | -37.51525 | 41078 ft | 505 kts | 31° |
| 2026-05-04 14:07 | -11.44044 | -37.47403 | 41097 ft | 505 kts | 31° |
| 2026-05-04 14:07 | -11.38309 | -37.43262 | 41089 ft | 505 kts | 31° |
| 2026-05-04 14:08 | -11.32571 | -37.39120 | 41084 ft | 505 kts | 31° |
| 2026-05-04 14:08 | -11.26826 | -37.34975 | 41083 ft | 506 kts | 31° |
| 2026-05-04 14:09 | -11.18198 | -37.28754 | 41070 ft | 506 kts | 31° |
| 2026-05-04 14:10 | -11.09611 | -37.22568 | 41063 ft | 506 kts | 31° |
| 2026-05-04 14:10 | -11.03859 | -37.18426 | 41057 ft | 506 kts | 31° |
| 2026-05-04 14:11 | -10.98087 | -37.14277 | 41048 ft | 506 kts | 31° |
| 2026-05-04 14:11 | -10.89476 | -37.08107 | 41051 ft | 506 kts | 31° |
| 2026-05-04 14:12 | -10.83717 | -37.03982 | 41053 ft | 506 kts | 31° |
| 2026-05-04 14:13 | -10.75059 | -36.97783 | 41067 ft | 507 kts | 31° |
| 2026-05-04 14:13 | -10.69280 | -36.93649 | 41061 ft | 507 kts | 31° |
| 2026-05-04 14:14 | -10.63496 | -36.89513 | 41067 ft | 507 kts | 31° |
| 2026-05-04 14:14 | -10.54870 | -36.83349 | 41063 ft | 508 kts | 31° |
| 2026-05-04 14:15 | -10.43295 | -36.75083 | 41059 ft | 508 kts | 31° |
| 2026-05-04 14:16 | -10.34614 | -36.68889 | 41055 ft | 508 kts | 31° |
| 2026-05-04 14:17 | -10.25962 | -36.62720 | 41055 ft | 508 kts | 31° |
| 2026-05-04 14:18 | -10.17274 | -36.56530 | 41049 ft | 508 kts | 31° |
| 2026-05-04 14:19 | -10.05744 | -36.48179 | 41051 ft | 508 kts | 31° |
| 2026-05-04 14:19 | -9.99964 | -36.44042 | 41050 ft | 508 kts | 31° |
| 2026-05-04 14:20 | -9.94166 | -36.39923 | 41049 ft | 508 kts | 31° |
| 2026-05-04 14:20 | -9.88367 | -36.35815 | 41050 ft | 508 kts | 31° |
| 2026-05-04 14:21 | -9.79708 | -36.29686 | 41044 ft | 508 kts | 31° |
| 2026-05-04 14:21 | -9.73903 | -36.25581 | 41054 ft | 508 kts | 30° |
| 2026-05-04 14:22 | -9.68104 | -36.21483 | 40987 ft | 507 kts | 30° |
| 2026-05-04 14:22 | -9.65225 | -36.19451 | 40403 ft | 503 kts | 30° |
| 2026-05-04 14:22 | -9.62342 | -36.17416 | 39527 ft | 506 kts | 30° |
| 2026-05-04 14:23 | -9.56529 | -36.13320 | 37830 ft | 509 kts | 30° |
| 2026-05-04 14:23 | -9.53626 | -36.11274 | 37137 ft | 506 kts | 30° |
| 2026-05-04 14:23 | -9.50736 | -36.09239 | 36426 ft | 504 kts | 30° |
| 2026-05-04 14:24 | -9.47856 | -36.07211 | 35727 ft | 503 kts | 30° |
| 2026-05-04 14:24 | -9.44991 | -36.05193 | 35108 ft | 500 kts | 30° |
| 2026-05-04 14:24 | -9.42145 | -36.03186 | 34591 ft | 495 kts | 30° |
| 2026-05-04 14:24 | -9.39367 | -36.01228 | 34060 ft | 491 kts | 30° |
| 2026-05-04 14:25 | -9.36583 | -35.99266 | 33478 ft | 486 kts | 30° |
| 2026-05-04 14:25 | -9.31083 | -35.95390 | 32429 ft | 474 kts | 30° |
| 2026-05-04 14:25 | -9.28384 | -35.93488 | 31923 ft | 469 kts | 30° |
| 2026-05-04 14:26 | -9.25723 | -35.91612 | 31412 ft | 463 kts | 31° |
| 2026-05-04 14:26 | -9.23096 | -35.89773 | 30923 ft | 457 kts | 28° |
| 2026-05-04 14:26 | -9.20466 | -35.88008 | 30415 ft | 449 kts | 23° |
| 2026-05-04 14:26 | -9.17835 | -35.86337 | 29892 ft | 440 kts | 21° |
| 2026-05-04 14:27 | -9.15315 | -35.84565 | 29393 ft | 440 kts | 37° |
| 2026-05-04 14:27 | -9.12950 | -35.82677 | 28902 ft | 436 kts | 37° |
| 2026-05-04 14:27 | -9.10543 | -35.80815 | 28419 ft | 432 kts | 36° |
| 2026-05-04 14:27 | -9.08130 | -35.79018 | 27939 ft | 429 kts | 36° |
| 2026-05-04 14:28 | -9.05708 | -35.77258 | 27455 ft | 425 kts | 35° |
| 2026-05-04 14:28 | -9.04112 | -35.76113 | 27129 ft | 423 kts | 35° |
| 2026-05-04 14:28 | -9.01047 | -35.73720 | 26449 ft | 419 kts | 42° |
| 2026-05-04 14:28 | -8.98910 | -35.71711 | 25936 ft | 417 kts | 44° |
| 2026-05-04 14:29 | -8.95433 | -35.68369 | 25127 ft | 412 kts | 44° |
| 2026-05-04 14:29 | -8.91287 | -35.64401 | 24153 ft | 407 kts | 44° |
| 2026-05-04 14:30 | -8.88578 | -35.61815 | 23482 ft | 403 kts | 44° |
| 2026-05-04 14:30 | -8.87207 | -35.60508 | 23113 ft | 400 kts | 44° |
| 2026-05-04 14:30 | -8.83208 | -35.56695 | 22141 ft | 390 kts | 44° |
| 2026-05-04 14:31 | -8.81246 | -35.54826 | 21661 ft | 386 kts | 44° |
| 2026-05-04 14:31 | -8.77372 | -35.51134 | 20730 ft | 380 kts | 45° |
| 2026-05-04 14:32 | -8.73569 | -35.47513 | 19782 ft | 375 kts | 45° |
| 2026-05-04 14:32 | -8.71672 | -35.45707 | 19307 ft | 373 kts | 45° |
| 2026-05-04 14:32 | -8.69777 | -35.43903 | 18837 ft | 372 kts | 45° |
| 2026-05-04 14:32 | -8.67894 | -35.42113 | 18355 ft | 371 kts | 45° |
| 2026-05-04 14:33 | -8.66014 | -35.40331 | 17839 ft | 369 kts | 44° |
| 2026-05-04 14:33 | -8.64157 | -35.38567 | 17336 ft | 364 kts | 44° |
| 2026-05-04 14:33 | -8.62321 | -35.36823 | 16879 ft | 360 kts | 44° |
| 2026-05-04 14:33 | -8.60509 | -35.35102 | 16421 ft | 356 kts | 44° |
| 2026-05-04 14:34 | -8.58717 | -35.33402 | 15950 ft | 352 kts | 43° |
| 2026-05-04 14:34 | -8.56959 | -35.31733 | 15520 ft | 349 kts | 43° |
| 2026-05-04 14:34 | -8.55200 | -35.30065 | 15065 ft | 345 kts | 43° |
| 2026-05-04 14:34 | -8.53451 | -35.28406 | 14599 ft | 343 kts | 42° |
| 2026-05-04 14:35 | -8.51718 | -35.26762 | 14170 ft | 340 kts | 42° |
| 2026-05-04 14:35 | -8.49999 | -35.25132 | 13701 ft | 337 kts | 42° |
| 2026-05-04 14:35 | -8.48295 | -35.23517 | 13227 ft | 334 kts | 42° |
| 2026-05-04 14:35 | -8.46609 | -35.21920 | 12773 ft | 330 kts | 42° |
| 2026-05-04 14:36 | -8.44944 | -35.20342 | 12307 ft | 327 kts | 42° |
| 2026-05-04 14:36 | -8.43298 | -35.18782 | 11883 ft | 323 kts | 43° |
| 2026-05-04 14:36 | -8.41658 | -35.17233 | 11443 ft | 320 kts | 43° |
| 2026-05-04 14:36 | -8.40037 | -35.15702 | 10999 ft | 318 kts | 43° |
| 2026-05-04 14:37 | -8.38428 | -35.14180 | 10556 ft | 315 kts | 43° |
| 2026-05-04 14:37 | -8.36860 | -35.12698 | 10273 ft | 307 kts | 44° |
| 2026-05-04 14:37 | -8.35339 | -35.11261 | 10164 ft | 292 kts | 44° |
| 2026-05-04 14:37 | -8.33893 | -35.09894 | 10068 ft | 278 kts | 44° |
| 2026-05-04 14:38 | -8.32504 | -35.08582 | 9894 ft | 270 kts | 44° |
| 2026-05-04 14:38 | -8.31109 | -35.07263 | 9549 ft | 279 kts | 45° |
| 2026-05-04 14:38 | -8.29688 | -35.05920 | 9235 ft | 281 kts | 44° |
| 2026-05-04 14:38 | -8.28180 | -35.04647 | 8881 ft | 284 kts | 35° |
| 2026-05-04 14:39 | -8.26355 | -35.03882 | 8537 ft | 287 kts | 18° |
| 2026-05-04 14:39 | -8.24410 | -35.03409 | 8218 ft | 288 kts | 15° |
| 2026-05-04 14:39 | -8.22451 | -35.02965 | 7888 ft | 289 kts | 15° |
| 2026-05-04 14:40 | -8.18583 | -35.02085 | 7396 ft | 277 kts | 14° |
| 2026-05-04 14:40 | -8.16692 | -35.01982 | 7237 ft | 269 kts | 353° |
| 2026-05-04 14:40 | -8.14923 | -35.02410 | 7140 ft | 260 kts | 344° |
| 2026-05-04 14:40 | -8.13226 | -35.02947 | 6909 ft | 250 kts | 343° |
| 2026-05-04 14:41 | -8.11575 | -35.03475 | 6452 ft | 247 kts | 343° |
| 2026-05-04 14:41 | -8.09967 | -35.03987 | 6126 ft | 239 kts | 343° |
| 2026-05-04 14:41 | -8.06887 | -35.04959 | 5420 ft | 226 kts | 343° |
| 2026-05-04 14:42 | -8.03898 | -35.05896 | 4622 ft | 224 kts | 343° |
| 2026-05-04 14:42 | -8.02415 | -35.06356 | 4219 ft | 220 kts | 343° |
| 2026-05-04 14:42 | -8.00944 | -35.06603 | 3865 ft | 216 kts | 1° |
| 2026-05-04 14:43 | -7.99490 | -35.06311 | 3568 ft | 213 kts | 26° |
| 2026-05-04 14:43 | -7.98284 | -35.05472 | 3290 ft | 205 kts | 49° |
| 2026-05-04 14:43 | -7.97515 | -35.04314 | 3037 ft | 197 kts | 70° |
| 2026-05-04 14:43 | -7.97064 | -35.03085 | 3001 ft | 181 kts | 76° |
| 2026-05-04 14:44 | -7.96674 | -35.01879 | 2909 ft | 181 kts | 76° |
| 2026-05-04 14:44 | -7.96289 | -35.00670 | 2829 ft | 180 kts | 76° |
| 2026-05-04 14:44 | -7.96088 | -34.99449 | 2744 ft | 175 kts | 95° |
| 2026-05-04 14:44 | -7.96392 | -34.98299 | 2670 ft | 168 kts | 122° |
| 2026-05-04 14:45 | -7.97167 | -34.97452 | 2603 ft | 164 kts | 147° |
| 2026-05-04 14:45 | -7.98193 | -34.96981 | 2519 ft | 161 kts | 160° |
| 2026-05-04 14:45 | -7.99262 | -34.96635 | 2454 ft | 160 kts | 161° |
| 2026-05-04 14:45 | -8.00322 | -34.96337 | 2293 ft | 161 kts | 167° |
| 2026-05-04 14:46 | -8.01388 | -34.96051 | 2062 ft | 156 kts | 159° |
| 2026-05-04 14:46 | -8.02392 | -34.95680 | 1850 ft | 151 kts | 159° |
| 2026-05-04 14:46 | -8.03372 | -34.95363 | 1674 ft | 146 kts | 160° |
| 2026-05-04 14:46 | -8.04329 | -34.95054 | 1474 ft | 143 kts | 159° |
| 2026-05-04 14:47 | -8.05272 | -34.94745 | 1286 ft | 141 kts | 160° |
| 2026-05-04 14:47 | -8.06194 | -34.94442 | 1110 ft | 138 kts | 160° |
| 2026-05-04 14:47 | -8.07102 | -34.94143 | 928 ft | 136 kts | 160° |
| 2026-05-04 14:47 | -8.07975 | -34.93856 | 769 ft | 127 kts | 159° |
| 2026-05-04 14:48 | -8.08795 | -34.93584 | 625 ft | 122 kts | 160° |
| 2026-05-04 14:48 | -8.09593 | -34.93321 | 434 ft | 121 kts | 160° |
| 2026-05-04 14:48 | -8.10388 | -34.93059 | 294 ft | 123 kts | 156° |
| 2026-05-04 14:48 | -8.11200 | -34.92788 | 122 ft | 122 kts | 157° |
| 2026-05-04 14:49 | -8.11975 | -34.92518 | 46 ft | 105 kts | 163° |
| 2026-05-04 14:49 | -8.12416 | -34.92380 | 46 ft | 23 kts | 146° |
| 2026-05-04 14:49 | -8.12448 | -34.92352 | 46 ft | 9 kts | 132° |
| 2026-05-04 14:49 | -8.12503 | -34.92281 | 45 ft | 16 kts | 124° |
| 2026-05-04 14:50 | -8.12580 | -34.92197 | 44 ft | 17 kts | 148° |
| 2026-05-04 14:50 | -8.12689 | -34.92153 | 45 ft | 17 kts | 160° |
| 2026-05-04 14:50 | -8.12811 | -34.92111 | 44 ft | 20 kts | 163° |
| 2026-05-04 14:50 | -8.12950 | -34.92068 | 46 ft | 22 kts | 165° |
| 2026-05-04 14:51 | -8.13025 | -34.92046 | 46 ft | 0 kts | 162° |
| 2026-05-04 14:51 | -8.13038 | -34.92042 | 44 ft | 7 kts | 162° |
| 2026-05-04 14:51 | -8.13122 | -34.92015 | 43 ft | 18 kts | 162° |
| 2026-05-04 14:51 | -8.13224 | -34.91970 | 44 ft | 6 kts | 134° |
| 2026-05-04 14:52 | -8.13232 | -34.91915 | 47 ft | 9 kts | 97° |
| 2026-05-04 14:52 | -8.13227 | -34.91890 | 46 ft | 0 kts | 73° |